createdAt,value
2023-06-01T00:00:14.749Z,33.13
2023-06-01T00:01:14.822Z,33.14
2023-06-01T00:02:14.904Z,33.13
2023-06-01T00:03:15.124Z,33.14
2023-06-01T00:04:15.050Z,33.14
2023-06-01T00:05:15.052Z,33.16
2023-06-01T00:06:15.140Z,33.17
2023-06-01T00:07:15.181Z,33.22
2023-06-01T00:08:15.227Z,33.18
2023-06-01T00:09:15.287Z,33.16
2023-06-01T00:10:15.359Z,33.20
2023-06-01T00:11:15.432Z,33.18
2023-06-01T00:12:15.495Z,33.16
2023-06-01T00:13:15.556Z,33.20
2023-06-01T00:14:15.599Z,33.18
2023-06-01T00:15:15.663Z,33.19
2023-06-01T00:16:15.751Z,33.18
2023-06-01T00:17:15.785Z,33.20
2023-06-01T00:18:15.864Z,33.20
2023-06-01T00:19:15.937Z,33.22
2023-06-01T00:20:15.977Z,33.24
2023-06-01T00:21:16.099Z,33.24
2023-06-01T00:22:16.093Z,33.24
2023-06-01T00:23:16.160Z,33.21
2023-06-01T00:24:16.236Z,33.21
2023-06-01T00:25:16.300Z,33.22
2023-06-01T00:26:16.351Z,33.23
2023-06-01T00:27:16.416Z,33.28
2023-06-01T00:28:16.504Z,33.24
2023-06-01T00:29:16.570Z,33.25
2023-06-01T00:30:16.594Z,33.24
2023-06-01T00:31:16.673Z,33.25
2023-06-01T00:32:16.724Z,33.25
2023-06-01T00:33:16.791Z,33.27
2023-06-01T00:34:16.834Z,33.25
2023-06-01T00:35:16.889Z,33.22
2023-06-01T00:36:16.981Z,33.27
2023-06-01T00:37:17.026Z,33.27
2023-06-01T00:38:17.085Z,33.27
2023-06-01T00:39:17.148Z,33.28
2023-06-01T00:40:17.238Z,33.28
2023-06-01T00:41:17.253Z,33.29
2023-06-01T00:42:17.324Z,33.27
2023-06-01T00:43:17.396Z,33.24
2023-06-01T00:44:17.471Z,33.25
2023-06-01T00:45:17.507Z,33.25
2023-06-01T00:46:17.607Z,33.25
2023-06-01T00:47:17.651Z,33.34
2023-06-01T00:48:17.677Z,33.25
2023-06-01T00:49:17.739Z,33.29
2023-06-01T00:50:17.887Z,33.32
2023-06-01T00:51:17.852Z,33.29
2023-06-01T00:52:17.918Z,33.29
2023-06-01T00:53:17.993Z,33.33
2023-06-01T00:54:18.056Z,33.31
2023-06-01T00:55:18.110Z,33.32
2023-06-01T00:56:18.253Z,33.29
2023-06-01T00:57:18.221Z,33.31
2023-06-01T00:58:18.336Z,33.34
2023-06-01T00:59:18.371Z,33.28
2023-06-01T01:00:18.465Z,33.32
2023-06-01T01:01:18.585Z,33.35
2023-06-01T01:02:18.526Z,33.34
2023-06-01T01:03:18.633Z,33.34
2023-06-01T01:04:18.770Z,33.32
2023-06-01T01:05:18.719Z,33.34
2023-06-01T01:06:18.771Z,33.35
2023-06-01T01:07:18.840Z,33.35
2023-06-01T01:08:18.936Z,33.29
2023-06-01T01:09:18.970Z,33.32
2023-06-01T01:10:19.029Z,33.34
2023-06-01T01:11:19.102Z,33.35
2023-06-01T01:12:19.125Z,33.31
2023-06-01T01:13:19.196Z,33.31
2023-06-01T01:14:19.275Z,33.32
2023-06-01T01:15:19.334Z,33.32
2023-06-01T01:16:19.437Z,33.36
2023-06-01T01:17:19.465Z,33.35
2023-06-01T01:18:19.534Z,33.34
2023-06-01T01:19:19.594Z,33.33
2023-06-01T01:20:19.670Z,33.33
2023-06-01T01:21:19.755Z,33.35
2023-06-01T01:22:19.782Z,33.35
2023-06-01T01:23:19.840Z,33.34
2023-06-01T01:24:19.893Z,33.38
2023-06-01T01:25:19.976Z,33.38
2023-06-01T01:26:20.022Z,33.35
2023-06-01T01:27:20.071Z,33.39
2023-06-01T01:28:20.140Z,33.39
2023-06-01T01:29:20.194Z,33.36
2023-06-01T01:30:20.258Z,33.38
2023-06-01T01:31:20.355Z,33.36
2023-06-01T01:32:20.402Z,33.39
2023-06-01T01:33:20.487Z,33.35
2023-06-01T01:34:20.518Z,33.36
2023-06-01T01:35:20.543Z,33.36
2023-06-01T01:36:20.591Z,33.39
2023-06-01T01:37:20.671Z,33.41
2023-06-01T01:38:20.740Z,33.39
2023-06-01T01:39:20.767Z,33.44
2023-06-01T01:40:20.828Z,33.45
2023-06-01T01:41:20.898Z,33.42
2023-06-01T01:42:20.914Z,33.40
2023-06-01T01:43:20.988Z,33.40
2023-06-01T01:44:21.042Z,33.44
2023-06-01T01:45:21.159Z,33.40
2023-06-01T01:46:21.124Z,33.40
2023-06-01T01:47:21.277Z,33.42
2023-06-01T01:48:21.290Z,33.40
2023-06-01T01:49:21.285Z,33.43
2023-06-01T01:50:21.324Z,33.41
2023-06-01T01:51:21.376Z,33.43
2023-06-01T01:52:21.430Z,33.46
2023-06-01T01:53:21.476Z,33.40
2023-06-01T01:54:21.526Z,33.43
2023-06-01T01:55:21.553Z,33.46
2023-06-01T01:56:21.589Z,33.44
2023-06-01T01:57:21.640Z,33.50
2023-06-01T01:58:21.715Z,33.44
2023-06-01T01:59:21.744Z,33.44
2023-06-01T02:00:21.757Z,33.44
2023-06-01T02:01:21.838Z,33.41
2023-06-01T02:02:21.905Z,33.46
2023-06-01T02:03:22.001Z,33.44
2023-06-01T02:04:21.930Z,33.44
2023-06-01T02:05:21.970Z,33.44
2023-06-01T02:06:21.972Z,33.50
2023-06-01T02:07:22.019Z,33.46
2023-06-01T02:08:22.058Z,33.46
2023-06-01T02:09:22.111Z,33.43
2023-06-01T02:10:22.153Z,33.41
2023-06-01T02:11:22.180Z,33.49
2023-06-01T02:12:22.225Z,33.49
2023-06-01T02:13:22.270Z,33.50
2023-06-01T02:14:22.325Z,33.51
2023-06-01T02:15:22.383Z,33.51
2023-06-01T02:16:22.481Z,33.48
2023-06-01T02:17:22.487Z,33.49
2023-06-01T02:18:22.504Z,33.47
2023-06-01T02:19:22.549Z,33.47
2023-06-01T02:20:22.588Z,33.47
2023-06-01T02:21:22.615Z,33.47
2023-06-01T02:22:22.622Z,33.50
2023-06-01T02:23:22.645Z,33.49
2023-06-01T02:24:22.662Z,33.49
2023-06-01T02:25:22.691Z,33.50
2023-06-01T02:26:22.732Z,33.47
2023-06-01T02:27:22.746Z,33.46
2023-06-01T02:28:22.790Z,33.51
2023-06-01T02:29:22.780Z,33.51
2023-06-01T02:30:22.810Z,33.49
2023-06-01T02:31:22.914Z,33.48
2023-06-01T02:32:22.901Z,33.54
2023-06-01T02:33:22.954Z,33.53
2023-06-01T02:34:23.002Z,33.50
2023-06-01T02:35:23.020Z,33.51
2023-06-01T02:36:23.070Z,33.54
2023-06-01T02:37:23.096Z,33.53
2023-06-01T02:38:23.148Z,33.47
2023-06-01T02:39:23.134Z,33.56
2023-06-01T02:40:23.174Z,33.50
2023-06-01T02:41:23.190Z,33.50
2023-06-01T02:42:23.206Z,33.47
2023-06-01T02:43:23.249Z,33.53
2023-06-01T02:44:23.293Z,33.51
2023-06-01T02:45:23.304Z,33.51
2023-06-01T02:46:23.375Z,33.50
2023-06-01T02:47:23.370Z,33.56
2023-06-01T02:48:23.370Z,33.51
2023-06-01T02:49:23.402Z,33.54
2023-06-01T02:50:23.444Z,33.50
2023-06-01T02:51:23.426Z,33.51
2023-06-01T02:52:23.441Z,33.50
2023-06-01T02:53:23.462Z,33.54
2023-06-01T02:54:23.529Z,33.52
2023-06-01T02:55:23.494Z,33.57
2023-06-01T02:56:23.501Z,33.55
2023-06-01T02:57:23.579Z,33.57
2023-06-01T02:58:23.539Z,33.55
2023-06-01T02:59:23.590Z,33.54
2023-06-01T03:00:23.623Z,33.57
2023-06-01T03:01:23.684Z,33.54
2023-06-01T03:02:23.657Z,33.56
2023-06-01T03:03:23.702Z,33.51
2023-06-01T03:04:23.836Z,33.54
2023-06-01T03:05:23.778Z,33.57
2023-06-01T03:06:23.837Z,33.52
2023-06-01T03:07:23.860Z,33.57
2023-06-01T03:08:23.871Z,33.57
2023-06-01T03:09:23.901Z,33.55
2023-06-01T03:10:23.934Z,33.55
2023-06-01T03:11:23.976Z,33.60
2023-06-01T03:12:23.984Z,33.54
2023-06-01T03:13:24.039Z,33.60
2023-06-01T03:14:24.050Z,33.57
2023-06-01T03:15:24.053Z,33.52
2023-06-01T03:16:24.120Z,33.60
2023-06-01T03:17:24.154Z,33.55
2023-06-01T03:18:24.145Z,33.54
2023-06-01T03:19:24.084Z,33.54
2023-06-01T03:20:24.092Z,33.53
2023-06-01T03:21:24.088Z,33.60
2023-06-01T03:22:24.086Z,33.58
2023-06-01T03:23:24.121Z,33.55
2023-06-01T03:24:24.189Z,33.61
2023-06-01T03:25:24.090Z,33.60
2023-06-01T03:26:24.103Z,33.58
2023-06-01T03:27:24.103Z,33.55
2023-06-01T03:28:24.116Z,33.61
2023-06-01T03:29:24.116Z,33.61
2023-06-01T03:30:24.095Z,33.58
2023-06-01T03:31:24.109Z,33.59
2023-06-01T03:32:24.112Z,33.55
2023-06-01T03:33:24.124Z,33.55
2023-06-01T03:34:24.135Z,33.58
2023-06-01T03:35:24.118Z,33.59
2023-06-01T03:36:24.140Z,33.58
2023-06-01T03:37:24.141Z,33.58
2023-06-01T03:38:24.198Z,33.57
2023-06-01T03:39:24.152Z,33.58
2023-06-01T03:40:24.152Z,33.62
2023-06-01T03:41:24.184Z,33.58
2023-06-01T03:42:24.177Z,33.55
2023-06-01T03:43:24.197Z,33.58
2023-06-01T03:44:24.196Z,33.56
2023-06-01T03:45:24.199Z,33.58
2023-06-01T03:46:24.206Z,33.60
2023-06-01T03:47:24.197Z,33.60
2023-06-01T03:48:24.228Z,33.56
2023-06-01T03:49:24.202Z,33.62
2023-06-01T03:50:24.203Z,33.62
2023-06-01T03:51:24.221Z,33.62
2023-06-01T03:52:24.243Z,33.60
2023-06-01T03:53:24.204Z,33.56
2023-06-01T03:54:24.209Z,33.60
2023-06-01T03:55:24.200Z,33.58
2023-06-01T03:56:24.205Z,33.58
2023-06-01T03:57:24.225Z,33.61
2023-06-01T03:58:24.203Z,33.56
2023-06-01T03:59:24.213Z,33.55
2023-06-01T04:00:24.248Z,33.56
2023-06-01T04:01:24.193Z,33.59
2023-06-01T04:02:24.329Z,33.58
2023-06-01T04:03:24.281Z,33.60
2023-06-01T04:04:24.265Z,33.60
2023-06-01T04:05:24.187Z,33.55
2023-06-01T04:06:24.203Z,33.61
2023-06-01T04:07:24.194Z,33.58
2023-06-01T04:08:24.223Z,33.56
2023-06-01T04:09:24.191Z,33.56
2023-06-01T04:10:24.213Z,33.62
2023-06-01T04:11:24.246Z,33.58
2023-06-01T04:12:24.222Z,33.56
2023-06-01T04:13:24.665Z,33.58
2023-06-01T04:14:24.210Z,33.54
2023-06-01T04:15:24.255Z,33.58
2023-06-01T04:16:24.293Z,33.58
2023-06-01T04:17:24.311Z,33.60
2023-06-01T04:18:24.274Z,33.60
2023-06-01T04:19:24.277Z,33.52
2023-06-01T04:20:24.299Z,33.51
2023-06-01T04:21:24.376Z,33.58
2023-06-01T04:22:24.297Z,33.55
2023-06-01T04:23:24.320Z,33.54
2023-06-01T04:24:24.311Z,33.54
2023-06-01T04:25:24.338Z,33.53
2023-06-01T04:26:24.333Z,33.50
2023-06-01T04:27:24.342Z,33.55
2023-06-01T04:28:24.369Z,33.50
2023-06-01T04:29:24.358Z,33.55
2023-06-01T04:30:24.376Z,33.53
2023-06-01T04:31:24.381Z,33.54
2023-06-01T04:32:24.385Z,33.52
2023-06-01T04:33:24.382Z,33.50
2023-06-01T04:34:24.456Z,33.57
2023-06-01T04:35:24.438Z,33.53
2023-06-01T04:36:24.444Z,33.54
2023-06-01T04:37:24.413Z,33.51
2023-06-01T04:38:24.416Z,33.54
2023-06-01T04:39:24.386Z,33.48
2023-06-01T04:40:24.408Z,33.50
2023-06-01T04:41:24.425Z,33.51
2023-06-01T04:42:24.448Z,33.55
2023-06-01T04:43:24.486Z,33.56
2023-06-01T04:44:24.526Z,33.50
2023-06-01T04:45:24.552Z,33.51
2023-06-01T04:46:24.771Z,33.51
2023-06-01T04:47:24.638Z,33.50
2023-06-01T04:48:24.656Z,33.50
2023-06-01T04:49:24.692Z,33.49
2023-06-01T04:50:24.759Z,33.47
2023-06-01T04:51:24.827Z,33.50
2023-06-01T04:52:24.848Z,33.46
2023-06-01T04:53:24.906Z,33.47
2023-06-01T04:54:24.939Z,33.43
2023-06-01T04:55:24.990Z,33.45
2023-06-01T04:56:25.054Z,33.46
2023-06-01T04:57:25.091Z,33.49
2023-06-01T04:58:25.215Z,33.44
2023-06-01T04:59:25.170Z,33.47
2023-06-01T05:00:25.233Z,33.44
2023-06-01T05:01:25.279Z,33.43
2023-06-01T05:02:25.325Z,33.43
2023-06-01T05:03:25.433Z,33.47
2023-06-01T05:04:25.369Z,33.41
2023-06-01T05:05:25.431Z,33.40
2023-06-01T05:06:25.462Z,33.41
2023-06-01T05:07:25.498Z,33.40
2023-06-01T05:08:25.524Z,33.40
2023-06-01T05:09:25.539Z,33.33
2023-06-01T05:10:25.576Z,33.41
2023-06-01T05:11:25.599Z,33.40
2023-06-01T05:12:25.665Z,33.37
2023-06-01T05:13:25.692Z,33.42
2023-06-01T05:14:25.713Z,33.38
2023-06-01T05:15:25.735Z,33.39
2023-06-01T05:16:25.906Z,33.38
2023-06-01T05:17:25.851Z,33.39
2023-06-01T05:18:25.922Z,33.32
2023-06-01T05:19:25.999Z,33.38
2023-06-01T05:20:25.949Z,33.35
2023-06-01T05:21:26.019Z,33.35
2023-06-01T05:22:26.004Z,33.30
2023-06-01T05:23:26.104Z,33.38
2023-06-01T05:24:26.086Z,33.33
2023-06-01T05:25:26.111Z,33.38
2023-06-01T05:26:26.238Z,33.30
2023-06-01T05:27:26.175Z,33.30
2023-06-01T05:28:26.229Z,33.36
2023-06-01T05:29:26.235Z,33.35
2023-06-01T05:30:26.281Z,33.35
2023-06-01T05:31:26.337Z,33.39
2023-06-01T05:32:26.291Z,33.29
2023-06-01T05:33:26.377Z,33.30
2023-06-01T05:34:26.448Z,33.32
2023-06-01T05:35:26.424Z,33.33
2023-06-01T05:36:26.446Z,33.52
2023-06-01T05:37:26.478Z,33.67
2023-06-01T05:38:26.552Z,34.06
2023-06-01T05:39:26.603Z,34.21
2023-06-01T05:40:26.690Z,34.32
2023-06-01T05:41:26.725Z,34.25
2023-06-01T05:42:26.773Z,34.14
2023-06-01T05:43:26.816Z,34.15
2023-06-01T05:44:26.859Z,34.35
2023-06-01T05:45:26.908Z,34.29
2023-06-01T05:46:27.042Z,34.20
2023-06-01T05:47:27.001Z,34.35
2023-06-01T05:48:27.042Z,34.31
2023-06-01T05:49:27.057Z,34.26
2023-06-01T05:50:27.090Z,34.16
2023-06-01T05:51:27.129Z,34.10
2023-06-01T05:52:27.181Z,34.04
2023-06-01T05:53:27.250Z,34.00
2023-06-01T05:54:27.274Z,33.98
2023-06-01T05:55:27.329Z,33.98
2023-06-01T05:56:27.396Z,33.97
2023-06-01T05:57:27.509Z,33.90
2023-06-01T05:58:27.604Z,33.92
2023-06-01T05:59:27.555Z,33.92
2023-06-01T06:00:27.614Z,33.92
2023-06-01T06:01:27.685Z,33.87
2023-06-01T06:02:27.932Z,33.91
2023-06-01T06:03:28.263Z,33.89
2023-06-01T06:04:27.996Z,33.91
2023-06-01T06:05:27.909Z,33.86
2023-06-01T06:06:28.681Z,33.83
2023-06-01T06:07:27.996Z,33.84
2023-06-01T06:08:28.050Z,33.85
2023-06-01T06:09:28.057Z,33.82
2023-06-01T06:10:28.096Z,33.84
2023-06-01T06:11:28.147Z,33.72
2023-06-01T06:12:28.183Z,33.74
2023-06-01T06:13:28.717Z,33.67
2023-06-01T06:14:28.306Z,33.66
2023-06-01T06:15:28.256Z,33.68
2023-06-01T06:16:28.275Z,33.70
2023-06-01T06:17:28.338Z,33.68
2023-06-01T06:18:28.337Z,33.67
2023-06-01T06:19:28.330Z,33.65
2023-06-01T06:20:28.418Z,33.64
2023-06-01T06:21:28.401Z,33.66
2023-06-01T06:22:28.390Z,33.61
2023-06-01T06:23:28.421Z,33.59
2023-06-01T06:24:28.454Z,33.56
2023-06-01T06:25:28.434Z,33.58
2023-06-01T06:26:28.427Z,33.61
2023-06-01T06:27:28.423Z,33.56
2023-06-01T06:28:28.455Z,33.54
2023-06-01T06:29:28.442Z,33.52
2023-06-01T06:30:28.450Z,33.45
2023-06-01T06:31:28.489Z,33.45
2023-06-01T06:32:28.502Z,33.49
2023-06-01T06:33:28.537Z,33.49
2023-06-01T06:34:28.465Z,33.41
2023-06-01T06:35:28.447Z,33.41
2023-06-01T06:36:28.445Z,33.41
2023-06-01T06:37:28.474Z,33.39
2023-06-01T06:38:28.746Z,33.38
2023-06-01T06:39:28.507Z,33.39
2023-06-01T06:40:28.544Z,33.38
2023-06-01T06:41:28.517Z,33.42
2023-06-01T06:42:28.544Z,33.39
2023-06-01T06:43:28.725Z,33.35
2023-06-01T06:44:28.574Z,33.37
2023-06-01T06:45:28.565Z,33.37
2023-06-01T06:46:28.614Z,33.33
2023-06-01T06:47:28.627Z,33.31
2023-06-01T06:48:28.687Z,33.31
2023-06-01T06:49:28.637Z,33.31
2023-06-01T06:50:28.722Z,33.30
2023-06-01T06:51:28.707Z,33.27
2023-06-01T06:52:28.753Z,33.25
2023-06-01T06:53:28.817Z,33.22
2023-06-01T06:54:28.805Z,33.21
2023-06-01T06:55:28.859Z,33.18
2023-06-01T06:56:28.933Z,33.16
2023-06-01T06:57:28.990Z,33.13
2023-06-01T06:58:29.009Z,33.15
2023-06-01T06:59:29.024Z,33.10
2023-06-01T07:00:29.095Z,33.06
2023-06-01T07:01:29.139Z,33.10
2023-06-01T07:02:29.243Z,33.07
2023-06-01T07:03:29.385Z,33.06
2023-06-01T07:04:29.275Z,33.00
2023-06-01T07:05:29.354Z,32.99
2023-06-01T07:06:29.382Z,32.99
2023-06-01T07:07:29.467Z,32.96
2023-06-01T07:08:32.218Z,32.96
2023-06-01T07:09:29.471Z,33.02
2023-06-01T07:10:29.481Z,32.92
2023-06-01T07:11:29.460Z,32.93
2023-06-01T07:12:29.473Z,32.91
2023-06-01T07:13:29.490Z,32.89
2023-06-01T07:14:29.475Z,32.89
2023-06-01T07:15:29.433Z,32.91
2023-06-01T07:16:29.515Z,32.86
2023-06-01T07:17:29.484Z,32.86
2023-06-01T07:18:29.448Z,32.80
2023-06-01T07:19:29.397Z,32.85
2023-06-01T07:20:29.421Z,32.86
2023-06-01T07:21:29.494Z,32.80
2023-06-01T07:22:29.373Z,32.86
2023-06-01T07:23:29.513Z,32.82
2023-06-01T07:24:29.452Z,32.80
2023-06-01T07:25:29.402Z,32.97
2023-06-01T07:26:29.453Z,32.90
2023-06-01T07:27:29.349Z,33.00
2023-06-01T07:28:29.425Z,33.15
2023-06-01T07:29:29.352Z,33.30
2023-06-01T07:30:29.600Z,33.32
2023-06-01T07:31:29.375Z,33.30
2023-06-01T07:32:29.548Z,33.07
2023-06-01T07:33:29.392Z,32.92
2023-06-01T07:34:29.315Z,32.38
2023-06-01T07:35:29.283Z,32.18
2023-06-01T07:36:29.309Z,32.27
2023-06-01T07:37:29.273Z,32.30
2023-06-01T07:38:29.748Z,32.33
2023-06-01T07:39:29.256Z,32.30
2023-06-01T07:40:29.269Z,32.40
2023-06-01T07:41:29.255Z,32.45
2023-06-01T07:42:29.250Z,32.58
2023-06-01T07:43:29.282Z,32.66
2023-06-01T07:44:29.246Z,32.55
2023-06-01T07:45:29.264Z,32.52
2023-06-01T07:46:29.388Z,32.54
2023-06-01T07:47:29.431Z,32.67
2023-06-01T07:48:29.483Z,32.70
2023-06-01T07:49:29.517Z,32.81
2023-06-01T07:50:29.574Z,32.71
2023-06-01T07:51:29.637Z,32.70
2023-06-01T07:52:29.710Z,32.74
2023-06-01T07:53:29.825Z,32.75
2023-06-01T07:54:29.908Z,32.71
2023-06-01T07:55:29.937Z,32.70
2023-06-01T07:56:29.948Z,32.66
2023-06-01T07:57:30.080Z,32.63
2023-06-01T07:58:30.125Z,32.59
2023-06-01T07:59:30.185Z,32.62
2023-06-01T08:00:30.211Z,32.59
2023-06-01T08:01:30.276Z,32.52
2023-06-01T08:02:30.356Z,32.49
2023-06-01T08:03:30.551Z,32.50
2023-06-01T08:04:30.499Z,32.56
2023-06-01T08:05:30.575Z,32.55
2023-06-01T08:06:30.563Z,32.50
2023-06-01T08:07:30.683Z,32.42
2023-06-01T08:08:30.667Z,32.37
2023-06-01T08:09:30.729Z,32.34
2023-06-01T08:10:30.800Z,32.34
2023-06-01T08:11:30.834Z,32.28
2023-06-01T08:12:30.985Z,32.28
2023-06-01T08:13:31.038Z,32.31
2023-06-01T08:14:31.057Z,32.37
2023-06-01T08:15:31.064Z,32.37
2023-06-01T08:16:31.151Z,32.13
2023-06-01T08:17:31.349Z,32.23
2023-06-01T08:18:31.783Z,32.20
2023-06-01T08:19:31.319Z,32.21
2023-06-01T08:20:31.461Z,32.24
2023-06-01T08:21:31.425Z,32.30
2023-06-01T08:22:31.441Z,32.27
2023-06-01T08:23:31.593Z,32.28
2023-06-01T08:24:31.532Z,32.64
2023-06-01T08:25:31.589Z,32.90
2023-06-01T08:26:31.756Z,33.44
2023-06-01T08:27:31.700Z,34.02
2023-06-01T08:28:31.718Z,33.92
2023-06-01T08:29:42.041Z,33.94
2023-06-01T08:30:32.792Z,33.84
2023-06-01T08:31:31.786Z,33.89
2023-06-01T08:32:31.764Z,33.81
2023-06-01T08:33:31.746Z,33.71
2023-06-01T08:34:31.721Z,33.80
2023-06-01T08:35:31.697Z,33.78
2023-06-01T08:36:31.755Z,33.77
2023-06-01T08:37:31.694Z,33.67
2023-06-01T08:38:31.691Z,33.74
2023-06-01T08:39:31.724Z,33.71
2023-06-01T08:40:31.701Z,33.54
2023-06-01T08:41:31.777Z,33.58
2023-06-01T08:42:31.658Z,33.68
2023-06-01T08:43:31.679Z,33.98
2023-06-01T08:44:31.651Z,34.28
2023-06-01T08:45:31.677Z,33.38
2023-06-01T08:46:31.771Z,33.94
2023-06-01T08:47:31.721Z,34.40
2023-06-01T08:48:31.728Z,34.80
2023-06-01T08:49:31.707Z,34.97
2023-06-01T08:50:31.744Z,34.92
2023-06-01T08:51:31.791Z,34.87
2023-06-01T08:52:31.789Z,34.84
2023-06-01T08:53:31.847Z,34.79
2023-06-01T08:54:31.791Z,34.82
2023-06-01T08:55:31.805Z,34.70
2023-06-01T08:56:31.824Z,34.53
2023-06-01T08:57:31.951Z,34.51
2023-06-01T08:58:31.962Z,33.82
2023-06-01T08:59:31.931Z,33.46
2023-06-01T09:00:31.960Z,33.89
2023-06-01T09:01:32.006Z,33.73
2023-06-01T09:02:32.015Z,34.13
2023-06-01T09:03:32.080Z,34.32
2023-06-01T09:04:32.119Z,34.21
2023-06-01T09:05:32.197Z,32.98
2023-06-01T09:06:32.209Z,33.27
2023-06-01T09:07:32.223Z,33.59
2023-06-01T09:08:32.325Z,32.90
2023-06-01T09:09:32.487Z,33.67
2023-06-01T09:10:32.313Z,34.05
2023-06-01T09:11:32.308Z,34.20
2023-06-01T09:12:32.313Z,34.33
2023-06-01T09:13:32.338Z,33.38
2023-06-01T09:14:32.331Z,33.35
2023-06-01T09:15:32.396Z,33.70
2023-06-01T09:16:32.341Z,33.93
2023-06-01T09:17:32.426Z,34.13
2023-06-01T09:18:32.550Z,34.20
2023-06-01T09:19:32.611Z,34.02
2023-06-01T09:20:32.686Z,34.04
2023-06-01T09:21:32.826Z,33.99
2023-06-01T09:22:32.821Z,33.99
2023-06-01T09:23:32.824Z,33.98
2023-06-01T09:24:32.815Z,33.96
2023-06-01T09:25:32.842Z,33.93
2023-06-01T09:26:32.849Z,33.82
2023-06-01T09:27:32.895Z,33.72
2023-06-01T09:28:32.900Z,33.58
2023-06-01T09:29:32.940Z,33.24
2023-06-01T09:30:32.999Z,33.08
2023-06-01T09:31:33.133Z,33.15
2023-06-01T09:32:33.046Z,33.32
2023-06-01T09:33:33.016Z,33.33
2023-06-01T09:34:33.060Z,33.51
2023-06-01T09:35:33.070Z,33.58
2023-06-01T09:36:33.122Z,33.69
2023-06-01T09:37:33.203Z,33.65
2023-06-01T09:38:33.188Z,33.75
2023-06-01T09:39:33.239Z,33.75
2023-06-01T09:40:33.257Z,33.78
2023-06-01T09:41:33.324Z,33.87
2023-06-01T09:42:33.348Z,34.03
2023-06-01T09:43:33.408Z,34.01
2023-06-01T09:44:33.481Z,33.71
2023-06-01T09:45:33.549Z,33.59
2023-06-01T09:46:33.661Z,33.56
2023-06-01T09:47:33.722Z,33.66
2023-06-01T09:48:33.713Z,33.08
2023-06-01T09:49:33.831Z,33.28
2023-06-01T09:50:33.829Z,32.88
2023-06-01T09:51:33.881Z,32.50
2023-06-01T09:52:33.924Z,32.51
2023-06-01T09:53:33.997Z,32.75
2023-06-01T09:54:34.027Z,33.16
2023-06-01T09:55:34.119Z,33.61
2023-06-01T09:56:34.550Z,33.44
2023-06-01T09:57:34.240Z,33.51
2023-06-01T09:58:34.301Z,33.92
2023-06-01T09:59:34.337Z,33.76
2023-06-01T10:00:34.394Z,33.73
2023-06-01T10:01:34.480Z,32.82
2023-06-01T10:02:34.591Z,32.02
2023-06-01T10:03:34.578Z,32.25
2023-06-01T10:04:34.626Z,32.42
2023-06-01T10:05:34.620Z,31.96
2023-06-01T10:06:34.661Z,32.10
2023-06-01T10:07:34.723Z,32.57
2023-06-01T10:08:34.794Z,32.70
2023-06-01T10:09:34.858Z,32.97
2023-06-01T10:10:34.933Z,33.00
2023-06-01T10:11:34.969Z,32.70
2023-06-01T10:12:35.168Z,32.88
2023-06-01T10:13:35.078Z,33.24
2023-06-01T10:14:35.152Z,33.31
2023-06-01T10:15:35.197Z,32.63
2023-06-01T10:16:35.269Z,32.98
2023-06-01T10:17:36.554Z,32.57
2023-06-01T10:18:35.304Z,32.50
2023-06-01T10:19:35.261Z,32.69
2023-06-01T10:20:35.275Z,33.13
2023-06-01T10:21:35.281Z,33.07
2023-06-01T10:22:35.259Z,32.69
2023-06-01T10:23:35.287Z,32.83
2023-06-01T10:24:35.238Z,32.99
2023-06-01T10:25:35.243Z,33.34
2023-06-01T10:26:35.244Z,33.25
2023-06-01T10:27:35.251Z,32.76
2023-06-01T10:28:35.278Z,31.96
2023-06-01T10:29:35.239Z,31.99
2023-06-01T10:30:35.207Z,31.27
2023-06-01T10:31:35.264Z,31.38
2023-06-01T10:32:35.192Z,30.30
2023-06-01T10:33:35.352Z,27.56
2023-06-01T10:34:35.186Z,26.41
2023-06-01T10:35:35.223Z,26.20
2023-06-01T10:36:35.165Z,27.24
2023-06-01T10:37:35.208Z,27.49
2023-06-01T10:38:35.225Z,28.25
2023-06-01T10:39:37.266Z,28.40
2023-06-01T10:40:35.136Z,28.29
2023-06-01T10:41:35.154Z,28.31
2023-06-01T10:42:35.146Z,28.35
2023-06-01T10:43:35.378Z,28.68
2023-06-01T10:44:35.106Z,28.40
2023-06-01T10:45:35.287Z,28.34
2023-06-01T10:46:35.113Z,27.17
2023-06-01T10:47:35.320Z,27.32
2023-06-01T10:48:35.083Z,27.06
2023-06-01T10:49:35.087Z,27.32
2023-06-01T10:50:35.083Z,27.12
2023-06-01T10:51:35.050Z,27.47
2023-06-01T10:52:35.059Z,27.60
2023-06-01T10:53:35.029Z,27.77
2023-06-01T10:54:35.064Z,27.59
2023-06-01T10:55:35.025Z,27.37
2023-06-01T10:56:35.040Z,26.98
2023-06-01T10:57:35.064Z,27.33
2023-06-01T10:58:35.034Z,26.84
2023-06-01T10:59:35.025Z,26.50
2023-06-01T11:00:35.014Z,26.74
2023-06-01T11:01:35.006Z,27.17
2023-06-01T11:02:35.046Z,27.50
2023-06-01T11:03:34.981Z,27.00
2023-06-01T11:04:35.147Z,27.08
2023-06-01T11:05:35.004Z,26.52
2023-06-01T11:06:34.946Z,26.28
2023-06-01T11:07:34.932Z,26.96
2023-06-01T11:08:34.947Z,26.85
2023-06-01T11:09:34.923Z,26.56
2023-06-01T11:10:34.947Z,26.78
2023-06-01T11:11:34.948Z,26.37
2023-06-01T11:12:34.941Z,26.42
2023-06-01T11:13:34.890Z,26.59
2023-06-01T11:14:35.285Z,26.33
2023-06-01T11:15:34.941Z,26.45
2023-06-01T11:16:34.922Z,27.15
2023-06-01T11:17:34.927Z,27.37
2023-06-01T11:18:34.947Z,27.77
2023-06-01T11:19:34.879Z,27.78
2023-06-01T11:20:34.871Z,27.80
2023-06-01T11:21:34.896Z,27.93
2023-06-01T11:22:34.858Z,28.00
2023-06-01T11:23:34.861Z,27.95
2023-06-01T11:24:34.910Z,27.99
2023-06-01T11:25:34.959Z,27.99
2023-06-01T11:26:34.971Z,28.10
2023-06-01T11:27:34.976Z,28.10
2023-06-01T11:28:34.968Z,28.17
2023-06-01T11:29:34.982Z,28.24
2023-06-01T11:30:35.000Z,28.27
2023-06-01T11:31:35.009Z,28.27
2023-06-01T11:32:35.026Z,28.34
2023-06-01T11:33:35.012Z,28.37
2023-06-01T11:34:34.976Z,28.44
2023-06-01T11:35:34.983Z,28.48
2023-06-01T11:36:34.985Z,28.51
2023-06-01T11:37:35.029Z,28.62
2023-06-01T11:38:35.617Z,28.61
2023-06-01T11:39:35.027Z,28.67
2023-06-01T11:40:39.522Z,28.67
2023-06-01T11:41:36.027Z,28.69
2023-06-01T11:42:35.030Z,28.76
2023-06-01T11:43:35.027Z,28.73
2023-06-01T11:44:35.063Z,28.83
2023-06-01T11:45:35.037Z,28.92
2023-06-01T11:46:35.029Z,28.92
2023-06-01T11:47:35.018Z,28.90
2023-06-01T11:48:35.028Z,28.93
2023-06-01T11:49:35.003Z,28.99
2023-06-01T11:50:35.004Z,29.05
2023-06-01T11:51:34.974Z,29.05
2023-06-01T11:52:34.960Z,29.06
2023-06-01T11:53:34.960Z,29.09
2023-06-01T11:54:34.970Z,29.10
2023-06-01T11:55:34.946Z,29.12
2023-06-01T11:56:34.960Z,29.12
2023-06-01T11:57:34.941Z,29.15
2023-06-01T11:58:34.943Z,29.20
2023-06-01T11:59:34.924Z,29.21
2023-06-01T12:00:34.941Z,29.20
2023-06-01T12:01:34.905Z,29.26
2023-06-01T12:02:34.993Z,29.28
2023-06-01T12:03:34.957Z,29.31
2023-06-01T12:04:35.012Z,29.30
2023-06-01T12:05:34.892Z,29.36
2023-06-01T12:06:34.907Z,29.37
2023-06-01T12:07:34.923Z,29.37
2023-06-01T12:08:34.956Z,29.37
2023-06-01T12:09:34.952Z,29.43
2023-06-01T12:10:34.964Z,29.44
2023-06-01T12:11:34.988Z,29.47
2023-06-01T12:12:35.027Z,29.50
2023-06-01T12:13:35.066Z,29.48
2023-06-01T12:14:35.114Z,29.51
2023-06-01T12:15:35.081Z,29.50
2023-06-01T12:16:35.100Z,29.54
2023-06-01T12:17:35.221Z,29.53
2023-06-01T12:18:35.251Z,29.55
2023-06-01T12:19:35.173Z,29.57
2023-06-01T12:20:35.173Z,29.60
2023-06-01T12:21:35.194Z,29.57
2023-06-01T12:22:35.194Z,29.58
2023-06-01T12:23:35.220Z,29.62
2023-06-01T12:24:35.288Z,29.63
2023-06-01T12:25:35.253Z,29.65
2023-06-01T12:26:35.268Z,29.64
2023-06-01T12:27:35.294Z,29.68
2023-06-01T12:28:35.294Z,29.74
2023-06-01T12:29:35.328Z,29.70
2023-06-01T12:30:35.334Z,29.80
2023-06-01T12:31:35.404Z,29.77
2023-06-01T12:32:35.373Z,29.75
2023-06-01T12:33:35.395Z,29.77
2023-06-01T12:34:35.401Z,29.75
2023-06-01T12:35:35.439Z,29.77
2023-06-01T12:36:35.593Z,29.75
2023-06-01T12:37:35.473Z,29.78
2023-06-01T12:38:35.476Z,29.84
2023-06-01T12:39:35.482Z,29.85
2023-06-01T12:40:35.609Z,29.85
2023-06-01T12:41:35.545Z,29.92
2023-06-01T12:42:35.552Z,29.92
2023-06-01T12:43:35.586Z,29.91
2023-06-01T12:44:35.604Z,29.96
2023-06-01T12:45:35.633Z,29.96
2023-06-01T12:46:35.727Z,29.97
2023-06-01T12:47:35.695Z,30.04
2023-06-01T12:48:35.700Z,30.02
2023-06-01T12:49:35.729Z,30.02
2023-06-01T12:50:36.161Z,30.03
2023-06-01T12:51:35.804Z,30.06
2023-06-01T12:52:35.857Z,30.10